Dalby, Iowa
Current Conditions -  °F | °C
As of 4:15 PM on Sunday 23 Nov 2014 (Local Time) from KPDC Reporting Station
Moderate Rain Moderate Rain  
Wind Chill: 46°   Ceiling: 900
Heat Index: 48°   Visibility: 10mi
Dew Point: 47°   Wind: 6mph
Humidity: 93%   Direction: 100°E
Pressure: 29.36"   Gusts: NA
Location:  43.2691°N, 91.2611°W
Report Text: KPDC 232215Z AUTO 10005KT 10SM RA BKN009 OVC016 09/08 A2936 RMK AO2 P0002 T00910081
Loading
Personal Weather Stations






























Interactive Weather Map New forecast layout! Learn more

10-Day Weather Forecast

Advertisements
Track Severe Weather on mobile